Milnesand, NM

7:17 PM MST on December 28, 2014 (GMT -0700)
Cannon Air Force Base | Change Station
CLOSE
Current Station
Airport
Location: Clovis Cannon AFB,
Elevation: 4295 ft
Nearby Weather Stations
Active Advisory: Special Statement

Elev 4295 ft 34.38 °N, 103.32 °W | Updated 19 minutes ago

Partly Cloudy
Partly Cloudy
39 °F
Feels Like 31 °F
N
13
Wind Variable Wind from West

Today
High -- | Low -- °F
--% Chance of Precip.
Yesterday
High -- | Low -- °F
Precip. -- in
6:56 AM 4:53 PM
First Quarter, 54% visible
Pressure 30.01 in
Visibility 10.0 miles
Clouds Clear
Windchill 31 °F
Dew Point 10 °F
Humidity 30%
Rainfall 0.00 in
Snow Depth Not available.
UV 0 out of 12
Pollen 5.80 out of 12
Air Quality Not available.
Flu Activity Not available.
METAR KCVS 290158Z AUTO 26011KT 10SM CLR 04/M12 A2996 RMK AO2 SLP160 T00391125 $

More Conditions Fewer Conditions

Pressure 30.01 in
Visibility 10.0 miles
Clouds Clear
Windchill 31 °F
Dew Point 10 °F
Humidity 30%
Rainfall 0.00 in
Snow Depth Not available.
UV 0 out of 12
Pollen 5.80 out of 12
Air Quality Not available.
Flu Activity Not available.
METAR KCVS 290158Z AUTO 26011KT 10SM CLR 04/M12 A2996 RMK AO2 SLP160 T00391125 $

More Conditions Fewer Conditions

10-Day Weather Forecast

Almanac

Astronomy

Dec. 28, 2014 Rise Set
Actual Time
Civil Twilight
Nautical Twilight
Astronomical Twilight
Moon
Length of Visible Light
Length of Day
Tomorrow will be .
, % of the Moon is Illuminated

Today's Extremes

State Highs State Lows

Community

WunderPhotos

Upload Photos

1,781,498 photos uploaded!

WunderBlogs® & News

Nearby

Air Quality

  Air Quality AQ Index Pollutant
Not available.

Snow Depth

Station Depth Elevation

Earthquake Activity

City Distance Mag. Time & Date
Minimum magnitude displayed is 2.5.

Coastal Water Temperatures

Place Temperature

Nearby Weather Stations